Startpagina
METAR-TAF:

METAR-TAF

Vliegvelden :

Yeovilton, Engeland

breedte: 51-00N, lengte: 002-38W, hoogte: 23 m

Actueel weer

Dit bericht is 35 minuten geleden gemaakt, om 22:50 UTC
Wind 3 kt uit het westnoordwesten
Temperatuur 15°C
Vochtigheid 82%
Druk 1022 hPa
Zicht 10 km of meer
Weinig wolken op 4000 ft
Gebroken wolken op 20000 ft

METAR: EGDY 142250Z 29003KT 9999 FEW040 BKN200 15/12 Q1022 NOSIG RMK BLU BLU

Tijdstip: 00:25 (23:25 UTC)

Verwachting

Dit bericht is 6 uur en het 9 minuten geleden gemaakt, om 17:16 UTC
Verwachting geldig van 14 om 18 UTC tot 15 om 03 UTC
Wind 8 kt uit het noordwesten
Zicht 10 km of meer
Weinig wolken op 2500 ft

TAF: EGDY 141716Z 1418/1503 32008KT 9999 FEW025

Waarnemingen en weersverwachtingen van meer dan 4000 vliegvelden (METAR en TAF).

De beschikbare stations zijn de gele en rode punten op de kaart.

Ga met uw muis naar het station om de naam te zien.

Klik dan om waarnemingen en weersverwachtingen te zien.

kaart wijzigen: klik op de groene knoppen met een zwart kruis om in te zoomen, op de groene knop met een streepje om uit te zoomen of op de groene pijlen voor aangrenzende kaarten.


METAR-TAF: